sensor_id;sensor_type;location;lat;lon;timestamp;temperature;humidity
37782;DHT22;23621;50.878;4.584;2022-12-18T00:02:24;3.40;57.70
37782;DHT22;23621;50.878;4.584;2022-12-18T00:04:51;3.40;57.60
37782;DHT22;23621;50.878;4.584;2022-12-18T00:07:17;3.30;57.50
37782;DHT22;23621;50.878;4.584;2022-12-18T00:09:45;3.30;57.50
37782;DHT22;23621;50.878;4.584;2022-12-18T00:12:12;3.30;58.20
37782;DHT22;23621;50.878;4.584;2022-12-18T00:14:41;3.30;57.50
37782;DHT22;23621;50.878;4.584;2022-12-18T00:17:10;3.20;57.40
37782;DHT22;23621;50.878;4.584;2022-12-18T00:19:36;3.20;57.50
37782;DHT22;23621;50.878;4.584;2022-12-18T00:22:03;3.20;57.50
37782;DHT22;23621;50.878;4.584;2022-12-18T00:24:30;3.20;57.50
37782;DHT22;23621;50.878;4.584;2022-12-18T00:26:57;3.10;57.50
37782;DHT22;23621;50.878;4.584;2022-12-18T00:29:24;3.20;57.50
37782;DHT22;23621;50.878;4.584;2022-12-18T00:31:50;3.10;57.40
37782;DHT22;23621;50.878;4.584;2022-12-18T00:34:17;3.10;57.40
37782;DHT22;23621;50.878;4.584;2022-12-18T00:36:47;3.10;57.40
37782;DHT22;23621;50.878;4.584;2022-12-18T00:39:14;3.10;57.40
37782;DHT22;23621;50.878;4.584;2022-12-18T00:41:41;3.00;57.40
37782;DHT22;23621;50.878;4.584;2022-12-18T00:44:26;3.00;57.50
37782;DHT22;23621;50.878;4.584;2022-12-18T00:46:53;2.90;57.50
37782;DHT22;23621;50.878;4.584;2022-12-18T00:49:20;3.00;57.50
37782;DHT22;23621;50.878;4.584;2022-12-18T00:51:47;2.90;57.40
37782;DHT22;23621;50.878;4.584;2022-12-18T00:54:16;2.90;57.50
37782;DHT22;23621;50.878;4.584;2022-12-18T00:56:43;2.90;57.50
37782;DHT22;23621;50.878;4.584;2022-12-18T00:59:16;2.90;57.50
37782;DHT22;23621;50.878;4.584;2022-12-18T01:01:44;2.90;57.50
37782;DHT22;23621;50.878;4.584;2022-12-18T01:04:11;2.90;57.50
37782;DHT22;23621;50.878;4.584;2022-12-18T01:06:38;2.90;57.50
37782;DHT22;23621;50.878;4.584;2022-12-18T01:09:05;2.90;57.50
37782;DHT22;23621;50.878;4.584;2022-12-18T01:11:32;2.90;57.50
37782;DHT22;23621;50.878;4.584;2022-12-18T01:13:59;2.90;57.50
37782;DHT22;23621;50.878;4.584;2022-12-18T01:16:26;2.90;57.40
37782;DHT22;23621;50.878;4.584;2022-12-18T01:18:53;2.90;57.40
37782;DHT22;23621;50.878;4.584;2022-12-18T01:21:22;2.90;57.40
37782;DHT22;23621;50.878;4.584;2022-12-18T01:23:53;2.90;57.40
37782;DHT22;23621;50.878;4.584;2022-12-18T01:26:21;2.90;57.40
37782;DHT22;23621;50.878;4.584;2022-12-18T01:28:47;2.80;57.30
37782;DHT22;23621;50.878;4.584;2022-12-18T01:31:29;2.80;57.30
37782;DHT22;23621;50.878;4.584;2022-12-18T01:33:57;2.80;57.30
37782;DHT22;23621;50.878;4.584;2022-12-18T01:36:26;2.80;57.20
37782;DHT22;23621;50.878;4.584;2022-12-18T01:38:54;2.80;57.20
37782;DHT22;23621;50.878;4.584;2022-12-18T01:41:27;2.80;57.10
37782;DHT22;23621;50.878;4.584;2022-12-18T01:49:47;2.70;57.00
37782;DHT22;23621;50.878;4.584;2022-12-18T01:52:14;2.70;57.00
37782;DHT22;23621;50.878;4.584;2022-12-18T01:54:42;2.70;57.00
37782;DHT22;23621;50.878;4.584;2022-12-18T01:57:09;2.70;57.10
37782;DHT22;23621;50.878;4.584;2022-12-18T01:59:36;2.70;57.00
37782;DHT22;23621;50.878;4.584;2022-12-18T02:02:07;2.70;57.00
37782;DHT22;23621;50.878;4.584;2022-12-18T02:04:34;2.70;57.00
37782;DHT22;23621;50.878;4.584;2022-12-18T02:07:14;2.60;56.80
37782;DHT22;23621;50.878;4.584;2022-12-18T02:09:54;2.60;56.90
37782;DHT22;23621;50.878;4.584;2022-12-18T02:12:23;2.60;56.90
37782;DHT22;23621;50.878;4.584;2022-12-18T02:15:23;2.50;57.00
37782;DHT22;23621;50.878;4.584;2022-12-18T02:18:03;2.50;56.90
37782;DHT22;23621;50.878;4.584;2022-12-18T02:26:20;2.40;56.90
37782;DHT22;23621;50.878;4.584;2022-12-18T02:28:59;2.40;56.90
37782;DHT22;23621;50.878;4.584;2022-12-18T02:31:40;2.40;56.90
37782;DHT22;23621;50.878;4.584;2022-12-18T02:34:09;2.40;56.80
37782;DHT22;23621;50.878;4.584;2022-12-18T02:36:40;2.40;56.80
37782;DHT22;23621;50.878;4.584;2022-12-18T02:39:10;2.40;56.70
37782;DHT22;23621;50.878;4.584;2022-12-18T02:41:39;2.40;56.60
37782;DHT22;23621;50.878;4.584;2022-12-18T02:44:11;2.40;56.50
37782;DHT22;23621;50.878;4.584;2022-12-18T02:46:42;2.40;56.50
37782;DHT22;23621;50.878;4.584;2022-12-18T02:52:25;2.30;56.20
37782;DHT22;23621;50.878;4.584;2022-12-18T02:57:58;2.20;56.10
37782;DHT22;23621;50.878;4.584;2022-12-18T03:00:35;2.10;56.10
37782;DHT22;23621;50.878;4.584;2022-12-18T03:05:57;2.10;56.10
37782;DHT22;23621;50.878;4.584;2022-12-18T03:08:30;2.10;56.10
37782;DHT22;23621;50.878;4.584;2022-12-18T03:11:05;2.10;56.10
37782;DHT22;23621;50.878;4.584;2022-12-18T03:13:55;2.10;56.10
37782;DHT22;23621;50.878;4.584;2022-12-18T03:16:27;2.10;56.00
37782;DHT22;23621;50.878;4.584;2022-12-18T03:21:49;2.10;56.70
37782;DHT22;23621;50.878;4.584;2022-12-18T03:24:18;2.10;56.20
37782;DHT22;23621;50.878;4.584;2022-12-18T03:26:48;2.10;56.10
37782;DHT22;23621;50.878;4.584;2022-12-18T03:31:49;2.20;56.10
37782;DHT22;23621;50.878;4.584;2022-12-18T03:34:23;2.20;56.10
37782;DHT22;23621;50.878;4.584;2022-12-18T03:36:53;2.10;56.00
37782;DHT22;23621;50.878;4.584;2022-12-18T03:39:20;2.10;55.90
37782;DHT22;23621;50.878;4.584;2022-12-18T03:41:55;2.10;56.00
37782;DHT22;23621;50.878;4.584;2022-12-18T03:44:31;2.10;56.00
37782;DHT22;23621;50.878;4.584;2022-12-18T03:47:15;2.20;56.20
37782;DHT22;23621;50.878;4.584;2022-12-18T03:49:50;2.20;56.10
37782;DHT22;23621;50.878;4.584;2022-12-18T03:52:37;2.20;56.00
37782;DHT22;23621;50.878;4.584;2022-12-18T03:55:06;2.20;55.90
37782;DHT22;23621;50.878;4.584;2022-12-18T03:57:33;2.10;55.80
37782;DHT22;23621;50.878;4.584;2022-12-18T04:00:05;2.10;55.80
37782;DHT22;23621;50.878;4.584;2022-12-18T04:02:34;2.10;55.80
37782;DHT22;23621;50.878;4.584;2022-12-18T04:05:05;2.10;55.80
37782;DHT22;23621;50.878;4.584;2022-12-18T04:07:33;2.10;55.90
37782;DHT22;23621;50.878;4.584;2022-12-18T04:10:02;2.00;55.80
37782;DHT22;23621;50.878;4.584;2022-12-18T04:12:32;2.00;55.70
37782;DHT22;23621;50.878;4.584;2022-12-18T04:14:59;2.00;55.70
37782;DHT22;23621;50.878;4.584;2022-12-18T04:17:26;2.00;55.70
37782;DHT22;23621;50.878;4.584;2022-12-18T04:19:53;2.00;55.50
37782;DHT22;23621;50.878;4.584;2022-12-18T04:22:19;1.90;55.30
37782;DHT22;23621;50.878;4.584;2022-12-18T04:24:46;1.90;55.40
37782;DHT22;23621;50.878;4.584;2022-12-18T04:27:13;1.90;55.30
37782;DHT22;23621;50.878;4.584;2022-12-18T04:29:40;1.90;55.40
37782;DHT22;23621;50.878;4.584;2022-12-18T04:32:08;1.90;55.40
37782;DHT22;23621;50.878;4.584;2022-12-18T04:34:34;1.90;55.50
37782;DHT22;23621;50.878;4.584;2022-12-18T04:37:01;1.90;55.50
37782;DHT22;23621;50.878;4.584;2022-12-18T04:39:28;1.90;55.50
37782;DHT22;23621;50.878;4.584;2022-12-18T04:41:55;1.90;55.40
37782;DHT22;23621;50.878;4.584;2022-12-18T04:44:22;1.90;55.30
37782;DHT22;23621;50.878;4.584;2022-12-18T04:46:49;1.80;55.20
37782;DHT22;23621;50.878;4.584;2022-12-18T04:49:16;1.80;55.20
37782;DHT22;23621;50.878;4.584;2022-12-18T04:51:43;1.80;55.20
37782;DHT22;23621;50.878;4.584;2022-12-18T04:54:10;1.80;55.30
37782;DHT22;23621;50.878;4.584;2022-12-18T04:56:36;1.80;55.30
37782;DHT22;23621;50.878;4.584;2022-12-18T04:59:03;1.80;55.30
37782;DHT22;23621;50.878;4.584;2022-12-18T05:01:30;1.80;55.40
37782;DHT22;23621;50.878;4.584;2022-12-18T05:04:01;1.90;55.40
37782;DHT22;23621;50.878;4.584;2022-12-18T05:06:28;1.90;55.40
37782;DHT22;23621;50.878;4.584;2022-12-18T05:08:55;1.90;55.40
37782;DHT22;23621;50.878;4.584;2022-12-18T05:11:22;1.90;55.40
37782;DHT22;23621;50.878;4.584;2022-12-18T05:13:49;2.00;55.50
37782;DHT22;23621;50.878;4.584;2022-12-18T05:16:16;2.00;55.50
37782;DHT22;23621;50.878;4.584;2022-12-18T05:18:43;2.00;55.50
37782;DHT22;23621;50.878;4.584;2022-12-18T05:21:10;2.10;55.50
37782;DHT22;23621;50.878;4.584;2022-12-18T05:23:37;2.10;55.50
37782;DHT22;23621;50.878;4.584;2022-12-18T05:26:06;2.10;55.40
37782;DHT22;23621;50.878;4.584;2022-12-18T05:28:34;2.10;55.50
37782;DHT22;23621;50.878;4.584;2022-12-18T05:31:03;2.10;55.40
37782;DHT22;23621;50.878;4.584;2022-12-18T05:33:32;2.10;55.40
37782;DHT22;23621;50.878;4.584;2022-12-18T05:36:00;2.10;55.40
37782;DHT22;23621;50.878;4.584;2022-12-18T05:38:29;2.00;55.30
37782;DHT22;23621;50.878;4.584;2022-12-18T05:40:56;2.00;55.30
37782;DHT22;23621;50.878;4.584;2022-12-18T05:43:24;2.00;55.30
37782;DHT22;23621;50.878;4.584;2022-12-18T05:45:52;2.00;55.40
37782;DHT22;23621;50.878;4.584;2022-12-18T05:48:20;2.00;55.20
37782;DHT22;23621;50.878;4.584;2022-12-18T05:50:48;2.00;55.20
37782;DHT22;23621;50.878;4.584;2022-12-18T05:53:17;1.90;55.20
37782;DHT22;23621;50.878;4.584;2022-12-18T05:55:44;1.90;55.30
37782;DHT22;23621;50.878;4.584;2022-12-18T05:58:12;1.90;55.30
37782;DHT22;23621;50.878;4.584;2022-12-18T06:00:41;1.90;55.30
37782;DHT22;23621;50.878;4.584;2022-12-18T06:03:09;1.90;55.40
37782;DHT22;23621;50.878;4.584;2022-12-18T06:05:41;2.00;55.50
37782;DHT22;23621;50.878;4.584;2022-12-18T06:08:09;2.00;55.50
37782;DHT22;23621;50.878;4.584;2022-12-18T06:10:36;2.00;55.50
37782;DHT22;23621;50.878;4.584;2022-12-18T06:13:04;2.00;55.40
37782;DHT22;23621;50.878;4.584;2022-12-18T06:15:32;2.00;55.30
37782;DHT22;23621;50.878;4.584;2022-12-18T06:18:00;2.00;55.20
37782;DHT22;23621;50.878;4.584;2022-12-18T06:20:31;2.00;55.10
37782;DHT22;23621;50.878;4.584;2022-12-18T06:22:59;2.00;55.10
37782;DHT22;23621;50.878;4.584;2022-12-18T06:25:26;2.00;55.10
37782;DHT22;23621;50.878;4.584;2022-12-18T06:27:53;2.00;55.10
37782;DHT22;23621;50.878;4.584;2022-12-18T06:30:20;2.00;55.20
37782;DHT22;23621;50.878;4.584;2022-12-18T06:32:50;2.00;55.20
37782;DHT22;23621;50.878;4.584;2022-12-18T06:35:22;2.00;55.20
37782;DHT22;23621;50.878;4.584;2022-12-18T06:37:49;2.00;55.20
37782;DHT22;23621;50.878;4.584;2022-12-18T06:40:16;2.00;55.10
37782;DHT22;23621;50.878;4.584;2022-12-18T06:42:43;2.00;55.00
37782;DHT22;23621;50.878;4.584;2022-12-18T06:45:10;1.90;55.00
37782;DHT22;23621;50.878;4.584;2022-12-18T06:47:37;1.90;55.10
37782;DHT22;23621;50.878;4.584;2022-12-18T06:50:05;1.90;55.10
37782;DHT22;23621;50.878;4.584;2022-12-18T06:52:33;1.90;55.20
37782;DHT22;23621;50.878;4.584;2022-12-18T06:55:00;1.90;55.20
37782;DHT22;23621;50.878;4.584;2022-12-18T06:57:26;1.90;55.10
37782;DHT22;23621;50.878;4.584;2022-12-18T06:59:53;1.90;55.10
37782;DHT22;23621;50.878;4.584;2022-12-18T07:02:20;1.90;55.00
37782;DHT22;23621;50.878;4.584;2022-12-18T07:04:50;1.90;55.00
37782;DHT22;23621;50.878;4.584;2022-12-18T07:07:17;1.90;55.10
37782;DHT22;23621;50.878;4.584;2022-12-18T07:09:44;1.90;55.10
37782;DHT22;23621;50.878;4.584;2022-12-18T07:12:11;1.90;55.20
37782;DHT22;23621;50.878;4.584;2022-12-18T07:14:38;2.00;55.20
37782;DHT22;23621;50.878;4.584;2022-12-18T07:17:05;2.00;55.20
37782;DHT22;23621;50.878;4.584;2022-12-18T07:19:32;2.00;55.20
37782;DHT22;23621;50.878;4.584;2022-12-18T07:21:59;1.90;55.10
37782;DHT22;23621;50.878;4.584;2022-12-18T07:24:26;2.00;55.20
37782;DHT22;23621;50.878;4.584;2022-12-18T07:26:53;2.00;55.20
37782;DHT22;23621;50.878;4.584;2022-12-18T07:29:20;2.00;55.20
37782;DHT22;23621;50.878;4.584;2022-12-18T07:31:47;2.00;55.20
37782;DHT22;23621;50.878;4.584;2022-12-18T07:34:14;1.90;55.10
37782;DHT22;23621;50.878;4.584;2022-12-18T07:36:42;1.90;55.10
37782;DHT22;23621;50.878;4.584;2022-12-18T07:39:10;1.90;55.20
37782;DHT22;23621;50.878;4.584;2022-12-18T07:41:37;1.90;55.20
37782;DHT22;23621;50.878;4.584;2022-12-18T07:44:12;1.80;55.30
37782;DHT22;23621;50.878;4.584;2022-12-18T07:46:39;1.90;55.30
37782;DHT22;23621;50.878;4.584;2022-12-18T07:49:06;1.90;55.20
37782;DHT22;23621;50.878;4.584;2022-12-18T07:51:33;1.80;55.20
37782;DHT22;23621;50.878;4.584;2022-12-18T07:54:00;1.80;55.20
37782;DHT22;23621;50.878;4.584;2022-12-18T07:56:26;1.80;55.20
37782;DHT22;23621;50.878;4.584;2022-12-18T07:58:56;1.80;55.30
37782;DHT22;23621;50.878;4.584;2022-12-18T08:01:23;1.80;55.30
37782;DHT22;23621;50.878;4.584;2022-12-18T08:03:50;1.80;55.30
37782;DHT22;23621;50.878;4.584;2022-12-18T08:06:18;1.90;55.40
37782;DHT22;23621;50.878;4.584;2022-12-18T08:08:53;1.90;55.40
37782;DHT22;23621;50.878;4.584;2022-12-18T08:11:22;1.90;55.30
37782;DHT22;23621;50.878;4.584;2022-12-18T08:13:49;1.90;55.30
37782;DHT22;23621;50.878;4.584;2022-12-18T08:16:16;1.90;55.20
37782;DHT22;23621;50.878;4.584;2022-12-18T08:18:43;1.80;55.30
37782;DHT22;23621;50.878;4.584;2022-12-18T08:21:15;1.80;55.40
37782;DHT22;23621;50.878;4.584;2022-12-18T08:23:42;1.80;55.40
37782;DHT22;23621;50.878;4.584;2022-12-18T08:26:11;1.80;55.50
37782;DHT22;23621;50.878;4.584;2022-12-18T08:28:38;1.80;55.70
37782;DHT22;23621;50.878;4.584;2022-12-18T08:31:06;1.80;55.80
37782;DHT22;23621;50.878;4.584;2022-12-18T08:33:34;1.90;55.90
37782;DHT22;23621;50.878;4.584;2022-12-18T08:36:05;1.90;56.00
37782;DHT22;23621;50.878;4.584;2022-12-18T08:38:32;1.90;56.10
37782;DHT22;23621;50.878;4.584;2022-12-18T08:41:00;2.00;56.30
37782;DHT22;23621;50.878;4.584;2022-12-18T08:43:28;2.00;56.40
37782;DHT22;23621;50.878;4.584;2022-12-18T08:46:15;2.00;56.50
37782;DHT22;23621;50.878;4.584;2022-12-18T08:48:42;2.10;56.80
37782;DHT22;23621;50.878;4.584;2022-12-18T08:51:09;2.10;56.90
37782;DHT22;23621;50.878;4.584;2022-12-18T08:53:39;2.10;56.90
37782;DHT22;23621;50.878;4.584;2022-12-18T08:56:07;2.10;56.90
37782;DHT22;23621;50.878;4.584;2022-12-18T08:58:34;2.10;56.90
37782;DHT22;23621;50.878;4.584;2022-12-18T09:01:02;2.10;57.00
37782;DHT22;23621;50.878;4.584;2022-12-18T09:03:31;2.00;57.00
37782;DHT22;23621;50.878;4.584;2022-12-18T09:05:58;2.00;57.10
37782;DHT22;23621;50.878;4.584;2022-12-18T09:08:26;2.00;57.20
37782;DHT22;23621;50.878;4.584;2022-12-18T09:10:53;2.10;57.40
37782;DHT22;23621;50.878;4.584;2022-12-18T09:13:21;2.20;57.60
37782;DHT22;23621;50.878;4.584;2022-12-18T09:15:51;2.20;57.60
37782;DHT22;23621;50.878;4.584;2022-12-18T09:18:19;2.20;57.70
37782;DHT22;23621;50.878;4.584;2022-12-18T09:20:47;2.30;57.90
37782;DHT22;23621;50.878;4.584;2022-12-18T09:23:13;2.30;58.00
37782;DHT22;23621;50.878;4.584;2022-12-18T09:25:41;2.40;58.20
37782;DHT22;23621;50.878;4.584;2022-12-18T09:28:15;2.40;58.80
37782;DHT22;23621;50.878;4.584;2022-12-18T09:30:48;2.50;58.40
37782;DHT22;23621;50.878;4.584;2022-12-18T09:33:16;2.50;58.50
37782;DHT22;23621;50.878;4.584;2022-12-18T09:35:45;2.60;58.70
37782;DHT22;23621;50.878;4.584;2022-12-18T09:38:17;2.70;58.80
37782;DHT22;23621;50.878;4.584;2022-12-18T09:40:50;2.80;58.90
37782;DHT22;23621;50.878;4.584;2022-12-18T09:43:26;2.90;58.90
37782;DHT22;23621;50.878;4.584;2022-12-18T09:46:01;2.90;58.90
37782;DHT22;23621;50.878;4.584;2022-12-18T09:48:33;3.00;59.30
37782;DHT22;23621;50.878;4.584;2022-12-18T09:51:22;3.10;59.10
37782;DHT22;23621;50.878;4.584;2022-12-18T09:53:55;3.10;59.20
37782;DHT22;23621;50.878;4.584;2022-12-18T09:56:25;3.20;59.30
37782;DHT22;23621;50.878;4.584;2022-12-18T09:59:01;3.20;59.30
37782;DHT22;23621;50.878;4.584;2022-12-18T10:01:29;3.30;59.40
37782;DHT22;23621;50.878;4.584;2022-12-18T10:04:09;3.40;59.60
37782;DHT22;23621;50.878;4.584;2022-12-18T10:07:01;3.50;59.70
37782;DHT22;23621;50.878;4.584;2022-12-18T10:09:43;3.60;59.80
37782;DHT22;23621;50.878;4.584;2022-12-18T10:15:36;3.70;59.90
37782;DHT22;23621;50.878;4.584;2022-12-18T10:21:10;3.90;59.90
37782;DHT22;23621;50.878;4.584;2022-12-18T10:26:19;4.00;59.90
37782;DHT22;23621;50.878;4.584;2022-12-18T10:28:47;4.00;60.00
37782;DHT22;23621;50.878;4.584;2022-12-18T10:31:21;4.10;60.00
37782;DHT22;23621;50.878;4.584;2022-12-18T10:33:51;4.20;60.20
37782;DHT22;23621;50.878;4.584;2022-12-18T10:36:18;4.20;60.20
37782;DHT22;23621;50.878;4.584;2022-12-18T10:38:45;4.30;60.40
37782;DHT22;23621;50.878;4.584;2022-12-18T10:43:47;4.40;60.60
37782;DHT22;23621;50.878;4.584;2022-12-18T10:46:17;4.40;60.50
37782;DHT22;23621;50.878;4.584;2022-12-18T10:48:53;4.50;60.70
37782;DHT22;23621;50.878;4.584;2022-12-18T10:54:03;4.60;60.80
37782;DHT22;23621;50.878;4.584;2022-12-18T10:56:34;4.60;60.80
37782;DHT22;23621;50.878;4.584;2022-12-18T10:59:07;4.70;60.90
37782;DHT22;23621;50.878;4.584;2022-12-18T11:04:23;4.80;61.00
37782;DHT22;23621;50.878;4.584;2022-12-18T11:07:03;4.80;61.20
37782;DHT22;23621;50.878;4.584;2022-12-18T11:09:35;4.90;61.20
37782;DHT22;23621;50.878;4.584;2022-12-18T11:12:17;5.00;61.20
37782;DHT22;23621;50.878;4.584;2022-12-18T11:14:49;5.00;61.30
37782;DHT22;23621;50.878;4.584;2022-12-18T11:19:54;5.20;61.40
37782;DHT22;23621;50.878;4.584;2022-12-18T11:22:25;5.20;61.40
37782;DHT22;23621;50.878;4.584;2022-12-18T11:28:01;5.40;61.40
37782;DHT22;23621;50.878;4.584;2022-12-18T11:30:31;5.40;61.40
37782;DHT22;23621;50.878;4.584;2022-12-18T11:38:24;5.60;61.60
37782;DHT22;23621;50.878;4.584;2022-12-18T11:41:47;5.60;61.60
37782;DHT22;23621;50.878;4.584;2022-12-18T11:43:50;5.60;61.70
37782;DHT22;23621;50.878;4.584;2022-12-18T11:46:38;5.70;61.70
37782;DHT22;23621;50.878;4.584;2022-12-18T11:49:17;5.70;61.70
37782;DHT22;23621;50.878;4.584;2022-12-18T11:52:31;5.70;61.60
37782;DHT22;23621;50.878;4.584;2022-12-18T11:54:52;5.80;61.70
37782;DHT22;23621;50.878;4.584;2022-12-18T12:00:25;5.80;61.80
37782;DHT22;23621;50.878;4.584;2022-12-18T12:03:22;5.90;61.80
37782;DHT22;23621;50.878;4.584;2022-12-18T12:14:22;6.00;62.00
37782;DHT22;23621;50.878;4.584;2022-12-18T12:20:20;6.10;62.10
37782;DHT22;23621;50.878;4.584;2022-12-18T12:22:50;6.10;62.10
37782;DHT22;23621;50.878;4.584;2022-12-18T12:31:24;6.20;62.40
37782;DHT22;23621;50.878;4.584;2022-12-18T12:36:25;6.30;62.60
37782;DHT22;23621;50.878;4.584;2022-12-18T12:38:59;6.30;62.60
37782;DHT22;23621;50.878;4.584;2022-12-18T12:41:31;6.30;62.70
37782;DHT22;23621;50.878;4.584;2022-12-18T12:44:23;6.30;62.70
37782;DHT22;23621;50.878;4.584;2022-12-18T12:46:52;6.40;62.90
37782;DHT22;23621;50.878;4.584;2022-12-18T12:49:25;6.50;63.00
37782;DHT22;23621;50.878;4.584;2022-12-18T12:54:28;6.50;62.90
37782;DHT22;23621;50.878;4.584;2022-12-18T12:57:08;6.50;62.90
37782;DHT22;23621;50.878;4.584;2022-12-18T13:03:13;6.50;63.00
37782;DHT22;23621;50.878;4.584;2022-12-18T13:05:54;6.50;62.90
37782;DHT22;23621;50.878;4.584;2022-12-18T13:08:27;6.60;63.10
37782;DHT22;23621;50.878;4.584;2022-12-18T13:10:58;6.60;63.10
37782;DHT22;23621;50.878;4.584;2022-12-18T13:13:53;6.60;63.00
37782;DHT22;23621;50.878;4.584;2022-12-18T13:16:25;6.60;63.00
37782;DHT22;23621;50.878;4.584;2022-12-18T13:18:55;6.60;63.00
37782;DHT22;23621;50.878;4.584;2022-12-18T13:21:29;6.70;63.10
37782;DHT22;23621;50.878;4.584;2022-12-18T13:24:23;6.70;63.10
37782;DHT22;23621;50.878;4.584;2022-12-18T13:26:50;6.70;63.10
37782;DHT22;23621;50.878;4.584;2022-12-18T13:29:55;6.70;63.10
37782;DHT22;23621;50.878;4.584;2022-12-18T13:32:25;6.70;62.90
37782;DHT22;23621;50.878;4.584;2022-12-18T13:37:52;6.80;62.80
37782;DHT22;23621;50.878;4.584;2022-12-18T13:43:45;6.80;62.60
37782;DHT22;23621;50.878;4.584;2022-12-18T13:49:00;6.80;62.60
37782;DHT22;23621;50.878;4.584;2022-12-18T13:51:29;6.90;62.40
37782;DHT22;23621;50.878;4.584;2022-12-18T13:56:29;6.90;62.10
37782;DHT22;23621;50.878;4.584;2022-12-18T14:30:56;0.20;72.10
37782;DHT22;23621;50.878;4.584;2022-12-18T14:33:27;0.70;72.80
37782;DHT22;23621;50.878;4.584;2022-12-18T14:36:03;2.10;71.60
37782;DHT22;23621;50.878;4.584;2022-12-18T14:38:36;3.20;69.50
37782;DHT22;23621;50.878;4.584;2022-12-18T14:41:11;4.10;67.60
37782;DHT22;23621;50.878;4.584;2022-12-18T14:43:41;4.70;66.50
37782;DHT22;23621;50.878;4.584;2022-12-18T14:46:36;5.20;65.70
37782;DHT22;23621;50.878;4.584;2022-12-18T14:49:30;5.60;65.30
37782;DHT22;23621;50.878;4.584;2022-12-18T14:52:06;5.90;64.70
37782;DHT22;23621;50.878;4.584;2022-12-18T14:54:35;6.10;64.30
37782;DHT22;23621;50.878;4.584;2022-12-18T14:57:24;6.30;64.80
37782;DHT22;23621;50.878;4.584;2022-12-18T14:59:51;6.40;63.70
37782;DHT22;23621;50.878;4.584;2022-12-18T15:02:25;6.50;63.50
37782;DHT22;23621;50.878;4.584;2022-12-18T15:05:05;6.60;63.40
37782;DHT22;23621;50.878;4.584;2022-12-18T15:07:43;6.70;63.20
37782;DHT22;23621;50.878;4.584;2022-12-18T15:10:23;6.70;63.00
37782;DHT22;23621;50.878;4.584;2022-12-18T15:13:07;6.70;62.90
37782;DHT22;23621;50.878;4.584;2022-12-18T15:20:53;6.70;62.90
37782;DHT22;23621;50.878;4.584;2022-12-18T15:26:14;6.70;62.80
37782;DHT22;23621;50.878;4.584;2022-12-18T15:28:55;6.60;62.60
37782;DHT22;23621;50.878;4.584;2022-12-18T15:31:26;6.70;62.80
37782;DHT22;23621;50.878;4.584;2022-12-18T15:36:23;6.70;62.80
37782;DHT22;23621;50.878;4.584;2022-12-18T15:38:54;6.70;62.80
37782;DHT22;23621;50.878;4.584;2022-12-18T15:41:32;6.70;62.70
37782;DHT22;23621;50.878;4.584;2022-12-18T15:44:03;6.70;62.60
37782;DHT22;23621;50.878;4.584;2022-12-18T15:46:42;6.70;62.60
37782;DHT22;23621;50.878;4.584;2022-12-18T15:49:10;6.70;62.50
37782;DHT22;23621;50.878;4.584;2022-12-18T15:51:38;6.70;63.40
37782;DHT22;23621;50.878;4.584;2022-12-18T15:54:08;6.70;62.50
37782;DHT22;23621;50.878;4.584;2022-12-18T15:56:37;6.70;62.50
37782;DHT22;23621;50.878;4.584;2022-12-18T15:59:24;6.70;62.50
37782;DHT22;23621;50.878;4.584;2022-12-18T16:01:52;6.70;62.30
37782;DHT22;23621;50.878;4.584;2022-12-18T16:04:22;6.70;62.40
37782;DHT22;23621;50.878;4.584;2022-12-18T16:06:51;6.70;62.40
37782;DHT22;23621;50.878;4.584;2022-12-18T16:09:38;6.70;62.30
37782;DHT22;23621;50.878;4.584;2022-12-18T16:12:06;6.70;62.20
37782;DHT22;23621;50.878;4.584;2022-12-18T16:14:38;6.70;62.10
37782;DHT22;23621;50.878;4.584;2022-12-18T16:17:08;6.70;62.10
37782;DHT22;23621;50.878;4.584;2022-12-18T16:19:35;6.70;62.00
37782;DHT22;23621;50.878;4.584;2022-12-18T16:22:04;6.80;62.00
37782;DHT22;23621;50.878;4.584;2022-12-18T16:24:33;6.80;61.80
37782;DHT22;23621;50.878;4.584;2022-12-18T16:27:02;6.80;61.80
37782;DHT22;23621;50.878;4.584;2022-12-18T16:29:30;6.70;61.70
37782;DHT22;23621;50.878;4.584;2022-12-18T16:31:58;6.80;61.70
37782;DHT22;23621;50.878;4.584;2022-12-18T16:34:30;6.80;61.50
37782;DHT22;23621;50.878;4.584;2022-12-18T16:37:06;6.80;61.40
37782;DHT22;23621;50.878;4.584;2022-12-18T16:39:35;6.80;61.20
37782;DHT22;23621;50.878;4.584;2022-12-18T16:42:04;6.80;61.10
37782;DHT22;23621;50.878;4.584;2022-12-18T16:44:33;6.80;61.00
37782;DHT22;23621;50.878;4.584;2022-12-18T16:47:00;6.90;60.90
37782;DHT22;23621;50.878;4.584;2022-12-18T16:49:29;6.90;60.90
37782;DHT22;23621;50.878;4.584;2022-12-18T16:51:56;6.90;60.80
37782;DHT22;23621;50.878;4.584;2022-12-18T16:54:23;6.90;60.70
37782;DHT22;23621;50.878;4.584;2022-12-18T16:56:51;6.90;60.70
37782;DHT22;23621;50.878;4.584;2022-12-18T16:59:18;6.90;60.60
37782;DHT22;23621;50.878;4.584;2022-12-18T17:01:45;6.90;60.40
37782;DHT22;23621;50.878;4.584;2022-12-18T17:04:13;6.90;60.40
37782;DHT22;23621;50.878;4.584;2022-12-18T17:06:42;7.00;60.40
37782;DHT22;23621;50.878;4.584;2022-12-18T17:09:13;6.90;60.30
37782;DHT22;23621;50.878;4.584;2022-12-18T17:11:42;7.00;60.30
37782;DHT22;23621;50.878;4.584;2022-12-18T17:14:17;7.00;60.20
37782;DHT22;23621;50.878;4.584;2022-12-18T17:16:45;7.00;60.10
37782;DHT22;23621;50.878;4.584;2022-12-18T17:19:13;7.10;60.10
37782;DHT22;23621;50.878;4.584;2022-12-18T17:21:44;7.10;60.80
37782;DHT22;23621;50.878;4.584;2022-12-18T17:24:11;7.10;59.90
37782;DHT22;23621;50.878;4.584;2022-12-18T17:26:38;7.10;59.90
37782;DHT22;23621;50.878;4.584;2022-12-18T17:29:05;7.20;60.00
37782;DHT22;23621;50.878;4.584;2022-12-18T17:31:32;7.20;60.10
37782;DHT22;23621;50.878;4.584;2022-12-18T17:34:03;7.20;60.10
37782;DHT22;23621;50.878;4.584;2022-12-18T17:36:30;7.20;60.10
37782;DHT22;23621;50.878;4.584;2022-12-18T17:39:01;7.20;60.10
37782;DHT22;23621;50.878;4.584;2022-12-18T17:41:29;7.20;60.10
37782;DHT22;23621;50.878;4.584;2022-12-18T17:44:02;7.20;60.10
37782;DHT22;23621;50.878;4.584;2022-12-18T17:46:31;7.20;60.20
37782;DHT22;23621;50.878;4.584;2022-12-18T17:49:00;7.20;60.10
37782;DHT22;23621;50.878;4.584;2022-12-18T17:51:28;7.30;60.20
37782;DHT22;23621;50.878;4.584;2022-12-18T17:53:55;7.30;60.30
37782;DHT22;23621;50.878;4.584;2022-12-18T17:56:23;7.30;60.40
37782;DHT22;23621;50.878;4.584;2022-12-18T17:58:50;7.30;60.40
37782;DHT22;23621;50.878;4.584;2022-12-18T18:01:20;7.30;60.60
37782;DHT22;23621;50.878;4.584;2022-12-18T18:03:47;7.40;60.80
37782;DHT22;23621;50.878;4.584;2022-12-18T18:06:19;7.40;60.90
37782;DHT22;23621;50.878;4.584;2022-12-18T18:08:46;7.40;61.80
37782;DHT22;23621;50.878;4.584;2022-12-18T18:11:15;7.30;61.20
37782;DHT22;23621;50.878;4.584;2022-12-18T18:14:04;7.40;61.40
37782;DHT22;23621;50.878;4.584;2022-12-18T18:16:43;7.30;61.40
37782;DHT22;23621;50.878;4.584;2022-12-18T18:19:16;7.40;61.80
37782;DHT22;23621;50.878;4.584;2022-12-18T18:21:46;7.40;61.90
37782;DHT22;23621;50.878;4.584;2022-12-18T18:24:16;7.40;62.00
37782;DHT22;23621;50.878;4.584;2022-12-18T18:26:44;7.40;62.20